Time;durP1;ratioP1;P1;durP2;ratioP2;P2;SDS_P1;SDS_P2;PMS_P1;PMS_P2;Temp;Humidity;BMP_temperature;BMP_pressure;BME280_temperature;BME280_humidity;BME280_pressure;Samples;Min_cycle;Max_cycle;Signal;HPM_P1;HPM_P2
2021/10/05 00:21:09;;;;;;;13.70;11.10;;;;;;;17.47;89.79;100305.58;3068619;75;21136;-65
2021/10/05 00:25:12;;;;;;;12.25;9.90;;;;;;;17.50;89.74;100299.03;3079417;77;20975;-65
2021/10/05 00:29:14;;;;;;;13.15;11.28;;;;;;;17.40;89.83;100289.80;3079101;77;20983;-65
2021/10/05 00:33:18;;;;;;;15.80;12.55;;;;;;;17.30;90.04;100290.50;3079214;77;21019;-65
2021/10/05 00:37:20;;;;;;;17.30;12.93;;;;;;;17.24;90.42;100291.49;3079042;77;21019;-65
2021/10/05 00:41:29;;;;;;;17.00;13.03;;;;;;;17.21;90.48;100278.92;3078848;77;20975;-65
2021/10/05 00:45:30;;;;;;;14.45;12.25;;;;;;;17.20;90.64;100278.06;3079189;77;20948;-65
2021/10/05 00:49:34;;;;;;;15.05;11.88;;;;;;;17.23;90.24;100260.77;3079001;77;20976;-65
2021/10/05 00:53:42;;;;;;;16.02;12.00;;;;;;;17.19;89.95;100254.03;3079437;77;21030;-65
2021/10/05 00:57:44;;;;;;;13.65;11.83;;;;;;;17.13;90.05;100244.83;3078936;77;20967;-66
2021/10/05 01:01:46;;;;;;;13.10;11.38;;;;;;;17.08;89.99;100246.67;3079047;76;20999;-65
2021/10/05 01:06:10;;;;;;;14.25;11.38;;;;;;;17.05;90.06;100236.75;3079111;77;21034;-65
2021/10/05 01:10:15;;;;;;;15.63;12.50;;;;;;;17.01;90.38;100236.77;3079152;77;21046;-65
2021/10/05 01:14:52;;;;;;;13.53;11.70;;;;;;;16.85;89.90;100239.27;3079160;77;20983;-65
2021/10/05 01:18:54;;;;;;;16.48;12.60;;;;;;;16.78;90.12;100229.36;3079607;77;20924;-65
2021/10/05 01:22:56;;;;;;;15.78;13.38;;;;;;;16.57;90.38;100213.24;3078489;77;20987;-65
2021/10/05 01:26:58;;;;;;;17.92;12.37;;;;;;;16.51;90.92;100205.87;3078847;77;20956;-67
2021/10/05 01:31:02;;;;;;;14.60;11.30;;;;;;;16.47;90.91;100201.33;3079546;77;21038;-66
2021/10/05 01:35:08;;;;;;;14.45;12.03;;;;;;;16.39;90.89;100206.17;3079710;77;20947;-66
2021/10/05 01:39:34;;;;;;;19.52;12.03;;;;;;;16.27;90.93;100194.07;3079911;77;20971;-65
2021/10/05 01:43:36;;;;;;;16.80;12.20;;;;;;;16.15;91.46;100190.87;3079626;77;21054;-66
2021/10/05 01:47:39;;;;;;;20.15;14.20;;;;;;;16.08;92.15;100187.17;3079458;77;20999;-65
2021/10/05 01:51:42;;;;;;;16.30;13.43;;;;;;;16.04;92.86;100184.49;3079678;77;21034;-65
2021/10/05 01:55:44;;;;;;;17.50;12.40;;;;;;;16.00;93.02;100185.31;3079247;77;21006;-66
2021/10/05 01:59:47;;;;;;;15.00;13.53;;;;;;;15.99;93.36;100175.59;3079317;77;20999;-66
2021/10/05 02:03:48;;;;;;;21.52;13.90;;;;;;;15.99;93.52;100162.17;3079206;77;20908;-66
2021/10/05 02:07:50;;;;;;;16.82;14.03;;;;;;;15.97;93.66;100149.43;3079307;77;20928;-66
2021/10/05 02:12:47;;;;;;;15.95;14.10;;;;;;;15.97;93.96;100146.74;3079224;77;20971;-66
2021/10/05 02:16:48;;;;;;;18.65;13.90;;;;;;;15.93;93.97;100141.38;3079588;77;20991;-65
2021/10/05 02:20:50;;;;;;;17.50;12.95;;;;;;;15.90;93.92;100138.52;3073307;77;21077;-65
2021/10/05 02:24:51;;;;;;;17.20;13.08;;;;;;;15.88;94.00;100136.95;3019052;79;20963;-66
2021/10/05 02:28:53;;;;;;;18.73;13.98;;;;;;;15.88;93.96;100132.93;3018716;79;20978;-66
2021/10/05 02:32:55;;;;;;;21.12;14.55;;;;;;;15.90;91.79;100134.98;3018984;79;21013;-66
2021/10/05 02:36:56;;;;;;;14.87;13.30;;;;;;;15.58;91.76;100133.35;3018986;79;20966;-66
2021/10/05 02:40:58;;;;;;;21.77;13.20;;;;;;;15.34;93.26;100138.96;3019127;79;21033;-66
2021/10/05 02:45:07;;;;;;;20.15;16.07;;;;;;;15.31;94.50;100129.05;3018537;79;20978;-66
2021/10/05 02:49:09;;;;;;;25.97;18.02;;;;;;;15.44;95.32;100121.41;3018906;79;20977;-66
2021/10/05 02:53:16;;;;;;;25.57;15.55;;;;;;;15.49;94.72;100128.46;3018859;79;20915;-66
2021/10/05 02:57:20;;;;;;;34.53;16.65;;;;;;;15.45;94.63;100123.61;3018804;79;20987;-66
2021/10/05 03:01:22;;;;;;;26.65;15.83;;;;;;;15.52;95.53;100110.71;3018565;76;21048;-66
2021/10/05 03:05:24;;;;;;;55.88;15.65;;;;;;;15.62;95.42;100111.09;3018740;79;20974;-67
2021/10/05 03:09:25;;;;;;;26.93;15.63;;;;;;;15.72;95.00;100109.09;3018962;76;20982;-66
2021/10/05 03:13:32;;;;;;;21.42;16.15;;;;;;;15.73;94.21;100106.77;3018916;77;21292;-67
2021/10/05 03:17:33;;;;;;;23.25;16.30;;;;;;;15.82;94.91;100101.75;3018193;78;21015;-65
2021/10/05 03:21:35;;;;;;;21.90;16.95;;;;;;;15.89;94.57;100089.05;3018789;78;20982;-58
2021/10/05 03:25:41;;;;;;;18.98;14.53;;;;;;;15.99;94.51;100079.01;3018625;79;20982;-58
2021/10/05 03:29:43;;;;;;;22.27;14.65;;;;;;;16.01;93.62;100066.27;3018885;78;21001;-59
2021/10/05 03:33:45;;;;;;;14.87;13.35;;;;;;;15.99;93.15;100058.38;3018445;79;21017;-59
2021/10/05 03:37:47;;;;;;;19.10;14.58;;;;;;;15.85;92.35;100056.34;3018851;79;20965;-58
2021/10/05 03:41:49;;;;;;;18.15;13.62;;;;;;;15.71;93.09;100052.44;3018912;79;20946;-58
2021/10/05 03:45:51;;;;;;;17.70;14.78;;;;;;;15.75;94.06;100051.14;3018618;79;21014;-58
2021/10/05 03:50:18;;;;;;;21.97;14.60;;;;;;;15.87;93.41;100057.50;3019059;79;20978;-58
2021/10/05 03:54:20;;;;;;;25.85;16.87;;;;;;;15.82;93.02;100057.98;3018619;79;21053;-58
2021/10/05 03:58:23;;;;;;;21.85;16.32;;;;;;;15.71;92.74;100051.10;3018725;79;20958;-58
2021/10/05 04:02:25;;;;;;;22.55;17.75;;;;;;;15.56;92.97;100055.80;3018771;78;20935;-58
2021/10/05 04:06:30;;;;;;;27.58;19.65;;;;;;;15.49;93.39;100049.91;3018479;79;20994;-59
2021/10/05 04:10:33;;;;;;;23.22;17.42;;;;;;;15.44;94.71;100036.17;3018807;79;20966;-58
2021/10/05 04:14:34;;;;;;;26.60;16.37;;;;;;;15.56;95.53;100033.49;3018748;77;20977;-57
2021/10/05 04:19:05;;;;;;;26.35;18.17;;;;;;;15.70;95.06;100011.89;3018809;79;20970;-58
2021/10/05 04:23:19;;;;;;;27.87;18.10;;;;;;;15.77;94.63;100008.05;3018750;77;21053;-58
2021/10/05 04:27:21;;;;;;;30.85;19.17;;;;;;;15.76;94.39;100007.22;3018894;79;21057;-57
2021/10/05 04:31:22;;;;;;;27.70;20.20;;;;;;;15.84;95.36;100002.38;3018714;77;20970;-58
2021/10/05 04:35:24;;;;;;;24.32;19.65;;;;;;;15.94;94.84;99992.84;3018646;79;21028;-58
2021/10/05 04:39:26;;;;;;;26.35;18.32;;;;;;;15.97;94.65;99995.19;3018815;77;21002;-60
2021/10/05 04:43:28;;;;;;;27.48;21.68;;;;;;;16.05;95.14;99967.00;3019079;78;20969;-59
2021/10/05 04:47:30;;;;;;;29.40;21.52;;;;;;;16.15;94.98;99963.31;3018824;79;20946;-59
2021/10/05 04:51:33;;;;;;;27.20;20.95;;;;;;;16.23;94.49;99959.27;3018829;79;21005;-57
2021/10/05 04:55:37;;;;;;;43.33;28.50;;;;;;;16.29;94.10;99958.56;3019319;79;21002;-59
2021/10/05 04:59:43;;;;;;;48.38;32.80;;;;;;;16.23;93.86;99953.89;3019075;79;21037;-60
2021/10/05 05:03:45;;;;;;;44.83;30.62;;;;;;;16.08;94.47;99941.17;3019059;79;21001;-57
2021/10/05 05:08:08;;;;;;;50.28;31.37;;;;;;;15.90;95.08;99936.50;3018947;79;20990;-58
2021/10/05 05:12:10;;;;;;;41.80;30.27;;;;;;;15.76;95.82;99933.48;2996133;79;20978;-58
2021/10/05 05:16:32;;;;;;;42.78;27.93;;;;;;;15.47;96.85;99941.50;3018591;79;20942;-60
2021/10/05 05:20:34;;;;;;;35.78;27.35;;;;;;;15.21;98.22;99933.11;3019125;76;20900;-60
2021/10/05 05:24:36;;;;;;;47.62;32.03;;;;;;;15.13;99.74;99926.38;3064389;77;20968;-58
2021/10/05 05:28:37;;;;;;;69.60;33.48;;;;;;;15.17;100.00;99922.88;3074719;77;20952;-58
2021/10/05 05:32:40;;;;;;;50.78;29.80;;;;;;;15.22;100.00;99924.55;3074787;77;20967;-58
2021/10/05 05:36:49;;;;;;;55.60;31.68;;;;;;;15.18;99.64;99924.06;3074649;77;20979;-58
2021/10/05 05:40:57;;;;;;;40.38;29.75;;;;;;;15.08;99.82;99920.20;3025472;76;21043;-58
2021/10/05 05:44:58;;;;;;;;;;;;;;;14.98;100.00;99909.63;2946642;81;20956;-58
2021/10/05 05:49:00;;;;;;;44.65;30.00;;;;;;;14.93;100.00;99901.23;2943840;81;20105;-58
2021/10/05 05:53:25;;;;;;;45.43;30.97;;;;;;;14.91;100.00;99902.41;2943745;81;21030;-59
2021/10/05 05:57:27;;;;;;;47.43;32.65;;;;;;;14.87;100.00;99896.53;2943911;81;21007;-58
2021/10/05 06:01:28;;;;;;;50.83;34.20;;;;;;;14.88;100.00;99900.89;2944215;81;20936;-58
2021/10/05 06:05:31;;;;;;;38.53;28.12;;;;;;;14.87;100.00;99908.58;2944158;81;20931;-58
2021/10/05 06:09:36;;;;;;;57.27;35.28;;;;;;;14.88;100.00;99904.08;2944038;81;20959;-57
2021/10/05 06:13:38;;;;;;;57.67;38.05;;;;;;;14.89;100.00;99891.84;2944545;81;21200;-57
2021/10/05 06:17:54;;;;;;;41.10;31.62;;;;;;;14.90;100.00;99883.33;2944055;81;20983;-57
2021/10/05 06:21:56;;;;;;;48.48;32.60;;;;;;;14.91;100.00;99875.11;2944337;81;20972;-58
2021/10/05 06:25:58;;;;;;;42.27;30.85;;;;;;;14.89;100.00;99875.78;2943842;81;20967;-57
2021/10/05 06:30:00;;;;;;;44.90;30.68;;;;;;;14.88;100.00;99875.45;2942770;78;21015;-58
2021/10/05 06:34:02;;;;;;;40.05;28.95;;;;;;;14.95;100.00;99877.83;2936581;81;21035;-60
2021/10/05 06:38:04;;;;;;;36.53;27.37;;;;;;;14.99;100.00;99873.81;2936321;79;20968;-58
2021/10/05 06:42:20;;;;;;;40.28;30.92;;;;;;;15.01;100.00;99870.13;2911608;80;20955;-60
2021/10/05 06:46:22;;;;;;;30.20;23.73;;;;;;;15.06;100.00;99861.08;2935481;80;21006;-58
2021/10/05 06:50:26;;;;;;;32.42;25.62;;;;;;;15.14;100.00;99855.75;2935246;81;20979;-58
2021/10/05 06:54:34;;;;;;;28.77;22.77;;;;;;;15.12;100.00;99849.70;2935547;81;20975;-59
2021/10/05 06:58:36;;;;;;;37.98;30.90;;;;;;;15.10;100.00;99846.35;2935599;81;21034;-58
2021/10/05 07:02:38;;;;;;;38.38;32.03;;;;;;;15.16;100.00;99831.46;2935756;81;21050;-58
2021/10/05 07:06:41;;;;;;;28.60;24.82;;;;;;;15.23;100.00;99827.09;2935543;80;20959;-58
2021/10/05 07:10:42;;;;;;;30.05;23.35;;;;;;;15.31;100.00;99817.73;2935241;81;21003;-59
2021/10/05 07:14:44;;;;;;;32.90;25.90;;;;;;;15.39;100.00;99819.58;2935593;81;20963;-58
2021/10/05 07:18:46;;;;;;;31.90;26.50;;;;;;;15.50;100.00;99809.83;2935383;80;20974;-58
2021/10/05 07:23:06;;;;;;;36.65;27.98;;;;;;;15.62;100.00;99810.83;2934949;80;21552;-57
2021/10/05 07:27:10;;;;;;;30.52;25.60;;;;;;;15.78;100.00;99804.09;2935241;81;21058;-57
2021/10/05 07:31:23;;;;;;;34.83;27.67;;;;;;;16.02;99.41;99775.55;2935224;80;21014;-58
2021/10/05 07:35:26;;;;;;;40.20;28.85;;;;;;;16.25;98.87;99772.08;2934562;81;21022;-58
2021/10/05 07:39:27;;;;;;;36.80;27.25;;;;;;;16.59;98.13;99762.83;2935038;81;21019;-57
2021/10/05 07:43:31;;;;;;;27.75;23.38;;;;;;;16.89;96.72;99749.50;2915510;81;21059;-59
2021/10/05 07:47:33;;;;;;;33.88;24.67;;;;;;;17.09;94.70;99747.19;2912115;82;21086;-58
2021/10/05 07:51:36;;;;;;;29.90;21.17;;;;;;;17.36;94.03;99746.78;2911906;82;21066;-59
2021/10/05 07:55:48;;;;;;;31.90;22.98;;;;;;;17.65;92.91;99741.08;2912354;81;21023;-58
2021/10/05 07:59:51;;;;;;;28.10;21.77;;;;;;;17.84;91.60;99728.94;2912499;82;20963;-58
2021/10/05 08:03:53;;;;;;;30.55;23.12;;;;;;;18.11;90.91;99706.41;2912892;82;21011;-58
2021/10/05 08:08:15;;;;;;;31.50;22.40;;;;;;;18.40;89.25;99698.75;2912470;82;21094;-58
2021/10/05 08:12:17;;;;;;;25.72;18.48;;;;;;;18.66;88.00;99690.59;2912880;82;21018;-57
2021/10/05 08:16:38;;;;;;;32.70;22.30;;;;;;;18.92;86.52;99680.23;2912548;80;20987;-58
2021/10/05 08:20:42;;;;;;;25.85;21.77;;;;;;;19.15;85.39;99666.55;2911178;80;21010;-60
2021/10/05 08:24:44;;;;;;;29.75;21.23;;;;;;;19.37;84.80;99664.62;2888925;80;21291;-60
2021/10/05 08:28:45;;;;;;;26.48;20.62;;;;;;;19.64;83.42;99649.91;2893497;80;21230;-57
2021/10/05 08:32:47;;;;;;;25.52;21.90;;;;;;;19.84;81.53;99643.22;2895316;81;20976;-58
2021/10/05 08:36:49;;;;;;;23.55;18.90;;;;;;;20.06;80.82;99631.48;2895072;82;20992;-57
2021/10/05 08:40:58;;;;;;;27.42;18.90;;;;;;;20.17;79.73;99630.89;2895623;82;21003;-57
2021/10/05 08:45:00;;;;;;;31.95;18.23;;;;;;;20.36;79.13;99630.59;2903840;80;20936;-59
2021/10/05 08:49:02;;;;;;;25.45;18.07;;;;;;;20.51;78.42;99621.47;2904001;82;20964;-59
2021/10/05 08:53:05;;;;;;;22.35;16.93;;;;;;;20.62;77.66;99616.77;2904057;82;20960;-58
2021/10/05 08:57:14;;;;;;;19.10;15.18;;;;;;;20.80;77.31;99597.77;2904204;82;20953;-57
2021/10/05 09:01:17;;;;;;;24.90;17.90;;;;;;;20.90;76.79;99599.53;2903927;80;20995;-57
2021/10/05 09:05:20;;;;;;;19.45;16.45;;;;;;;21.02;76.76;99597.02;2904063;80;20980;-58
2021/10/05 09:09:22;;;;;;;24.80;18.12;;;;;;;21.09;76.08;99583.48;2899744;80;21012;-59
2021/10/05 09:13:48;;;;;;;24.50;16.77;;;;;;;21.16;77.03;99592.39;2903770;80;20952;-59
2021/10/05 09:17:56;;;;;;;22.45;17.42;;;;;;;21.29;76.32;99584.75;2903717;82;20940;-58
2021/10/05 09:22:04;;;;;;;19.40;15.18;;;;;;;21.47;76.59;99580.52;2898593;81;21514;-58
2021/10/05 09:26:12;;;;;;;22.80;17.02;;;;;;;21.71;76.12;99576.28;2904115;80;20957;-59
2021/10/05 09:30:18;;;;;;;20.77;16.62;;;;;;;21.89;74.78;99568.77;2904016;80;21003;-57
2021/10/05 09:34:24;;;;;;;17.15;13.30;;;;;;;22.02;74.02;99560.27;2903542;80;20956;-59
2021/10/05 09:38:27;;;;;;;;;;;;;;;22.19;73.52;99548.35;2882318;82;21111;-57
2021/10/05 09:42:55;;;;;;;16.25;13.03;;;;;;;22.44;72.71;99545.64;2877502;81;20084;-59
2021/10/05 09:46:57;;;;;;;16.37;11.95;;;;;;;22.67;71.82;99527.95;2787000;85;20957;-57
2021/10/05 09:50:59;;;;;;;15.93;10.70;;;;;;;22.93;70.49;99528.19;2845800;82;21037;-58
2021/10/05 09:55:45;;;;;;;15.15;11.48;;;;;;;23.09;69.12;99529.48;2845877;82;21045;-58
2021/10/05 09:59:47;;;;;;;19.07;10.40;;;;;;;23.25;68.99;99519.05;2846365;80;21053;-58
2021/10/05 10:04:29;;;;;;;13.90;9.83;;;;;;;23.40;67.47;99522.77;2845746;81;21022;-57
2021/10/05 10:08:34;;;;;;;10.98;8.40;;;;;;;23.59;68.40;99515.93;2803658;83;20988;-58
2021/10/05 10:12:51;;;;;;;12.33;7.13;;;;;;;23.73;65.21;99509.23;2896152;82;20976;-58
2021/10/05 10:16:52;;;;;;;8.30;7.35;;;;;;;23.79;65.41;99506.12;2896130;82;20988;-58
2021/10/05 10:21:11;;;;;;;11.12;8.15;;;;;;;23.96;64.37;99507.10;2896104;82;20976;-58
2021/10/05 10:25:30;;;;;;;7.97;7.00;;;;;;;24.15;64.91;99510.27;2896214;79;20976;-58
2021/10/05 10:29:32;;;;;;;13.13;8.33;;;;;;;24.37;63.86;99501.02;2896015;81;21000;-58
2021/10/05 10:34:15;;;;;;;11.20;8.55;;;;;;;24.52;64.05;99495.09;2895848;79;20960;-57
2021/10/05 10:38:27;;;;;;;9.03;8.10;;;;;;;24.70;62.74;99486.52;2890461;79;21016;-58
2021/10/05 10:42:32;;;;;;;8.10;5.95;;;;;;;24.89;63.01;99473.08;2896754;79;21039;-57
2021/10/05 10:46:38;;;;;;;9.58;7.30;;;;;;;25.02;61.88;99471.16;2903095;80;21003;-58
2021/10/05 10:50:40;;;;;;;7.03;6.30;;;;;;;25.20;60.67;99469.62;2903756;82;21257;-58
2021/10/05 10:54:55;;;;;;;17.32;6.10;;;;;;;25.44;58.90;99455.05;2903699;82;21039;-59
2021/10/05 10:59:05;;;;;;;7.28;5.78;;;;;;;25.76;57.65;99448.59;2903768;80;20964;-58
2021/10/05 11:03:09;;;;;;;8.18;5.72;;;;;;;25.94;54.95;99450.74;2898406;82;21343;-59
2021/10/05 11:07:18;;;;;;;6.08;5.22;;;;;;;26.08;54.89;99441.16;2903115;80;21231;-59
2021/10/05 11:11:42;;;;;;;6.87;6.08;;;;;;;26.24;55.92;99441.42;2904143;82;21047;-58
2021/10/05 11:15:49;;;;;;;15.45;6.35;;;;;;;26.38;55.25;99437.27;2900067;80;20925;-59
2021/10/05 11:19:51;;;;;;;10.60;4.95;;;;;;;26.38;54.36;99430.46;2903901;82;20961;-58
2021/10/05 11:24:14;;;;;;;7.42;5.45;;;;;;;26.44;54.90;99427.27;2903896;80;20991;-59
2021/10/05 11:28:20;;;;;;;10.72;5.75;;;;;;;26.48;54.02;99428.94;2903879;82;21019;-58
2021/10/05 11:32:34;;;;;;;12.60;7.90;;;;;;;26.57;55.24;99420.61;2904018;82;21007;-59
2021/10/05 11:36:36;;;;;;;7.60;5.28;;;;;;;26.60;54.31;99410.55;2903769;82;20995;-58
2021/10/05 11:41:05;;;;;;;7.00;5.50;;;;;;;26.68;53.86;99405.73;2904027;78;21021;-58
2021/10/05 11:45:09;;;;;;;6.28;4.37;;;;;;;26.79;54.88;99404.22;2900069;82;21047;-58
2021/10/05 11:49:16;;;;;;;7.50;5.50;;;;;;;27.00;54.35;99407.77;2903561;82;21023;-58
2021/10/05 11:53:34;;;;;;;14.95;5.83;;;;;;;27.06;52.89;99399.91;2903903;80;20913;-59
2021/10/05 11:57:44;;;;;;;7.75;5.97;;;;;;;27.11;53.28;99391.77;2889284;82;20928;-58
2021/10/05 12:01:45;;;;;;;19.75;7.08;;;;;;;27.22;54.05;99394.08;2903722;80;21003;-57
2021/10/05 12:05:48;;;;;;;12.28;6.12;;;;;;;27.29;52.98;99395.20;2903913;82;21035;-58
2021/10/05 12:10:36;;;;;;;11.35;5.50;;;;;;;27.35;54.05;99399.09;2903753;80;21011;-58
2021/10/05 12:15:00;;;;;;;8.63;4.85;;;;;;;27.50;53.83;99387.47;2899845;81;20972;-58
2021/10/05 12:19:02;;;;;;;9.00;5.15;;;;;;;27.55;53.07;99390.02;2904098;82;21019;-59
2021/10/05 12:23:12;;;;;;;12.98;4.67;;;;;;;27.59;54.06;99387.85;2903604;82;21011;-58
2021/10/05 12:27:29;;;;;;;8.70;4.72;;;;;;;27.55;53.52;99390.02;2904182;82;20988;-57
2021/10/05 12:31:33;;;;;;;6.95;5.60;;;;;;;27.37;54.07;99390.66;2901359;80;20996;-58
2021/10/05 12:35:38;;;;;;;18.13;6.20;;;;;;;27.20;54.59;99394.33;2899855;81;20965;-59
2021/10/05 12:39:54;;;;;;;18.60;4.92;;;;;;;27.07;54.57;99382.45;2903861;82;21031;-58
2021/10/05 12:44:20;;;;;;;5.97;4.20;;;;;;;26.99;54.76;99387.02;2903520;81;21016;-58
2021/10/05 12:48:45;;;;;;;12.20;4.90;;;;;;;27.00;54.75;99382.65;2903757;82;21012;-57
2021/10/05 12:52:52;;;;;;;8.10;5.13;;;;;;;27.05;53.97;99381.88;2904088;82;20987;-59
2021/10/05 12:57:01;;;;;;;6.87;4.70;;;;;;;26.89;54.29;99384.45;2899848;82;21070;-57
2021/10/05 13:00:59;;;;;;;10.95;4.65;;;;;;;26.71;54.67;99372.48;2903234;80;20983;-58
2021/10/05 13:05:01;;;;;;;7.35;6.22;;;;;;;26.59;54.99;99373.46;2899786;80;21067;-58
2021/10/05 13:09:07;;;;;;;8.75;5.95;;;;;;;26.45;56.06;99376.28;2904115;82;21020;-63
2021/10/05 13:13:24;;;;;;;9.98;6.17;;;;;;;26.47;56.21;99373.59;2904342;82;21019;-64
2021/10/05 13:17:26;;;;;;;7.85;6.20;;;;;;;26.49;56.30;99366.51;2904160;80;21011;-61
2021/10/05 13:21:52;;;;;;;7.58;5.00;;;;;;;26.38;55.92;99373.73;2904267;78;20964;-62
2021/10/05 13:25:53;;;;;;;8.58;5.33;;;;;;;26.29;55.95;99367.90;2901486;82;21039;-64
2021/10/05 13:29:56;;;;;;;13.95;5.55;;;;;;;26.43;56.42;99366.17;2866098;81;21036;-60
2021/10/05 13:34:23;;;;;;;9.93;6.53;;;;;;;26.51;55.42;99378.82;2913392;82;21031;-61
2021/10/05 14:22:10;;;;;;;15.03;10.28;;;;;;;25.41;57.71;99395.14;2904222;82;20944;-62
2021/10/05 14:26:40;;;;;;;47.67;17.00;;;;;;;25.31;58.35;99405.32;2903887;82;21007;-61
2021/10/05 14:30:42;;;;;;;18.05;7.47;;;;;;;25.27;58.81;99404.69;2903770;82;20972;-62
2021/10/05 14:34:49;;;;;;;96.95;39.40;;;;;;;25.19;59.42;99402.66;2903758;81;21352;-62
2021/10/05 14:38:51;;;;;;;10.35;6.95;;;;;;;25.15;59.47;99397.95;2903379;80;20952;-62
2021/10/05 14:43:25;;;;;;;10.70;6.42;;;;;;;25.08;59.01;99399.45;2904008;82;20991;-63
2021/10/05 14:47:27;;;;;;;42.55;19.65;;;;;;;25.00;59.17;99398.50;2947859;80;20996;-61
2021/10/05 14:51:43;;;;;;;28.05;9.03;;;;;;;24.95;59.14;99393.23;2947690;81;21000;-61
2021/10/05 14:55:44;;;;;;;8.40;6.80;;;;;;;24.90;59.80;99399.94;2947985;80;21058;-62
2021/10/05 14:59:48;;;;;;;11.15;7.58;;;;;;;24.78;59.35;99391.83;2947753;80;20944;-62
2021/10/05 15:04:41;;;;;;;8.20;6.70;;;;;;;24.68;59.91;99400.58;2947867;80;21017;-61
2021/10/05 15:08:50;;;;;;;10.18;8.10;;;;;;;24.62;60.01;99399.34;2938141;80;21007;-62
2021/10/05 15:13:10;;;;;;;7.70;6.65;;;;;;;24.51;60.36;99395.59;2845308;83;21027;-62
2021/10/05 16:22:13;;;;;;;7.30;5.80;;;;;;;23.63;62.27;99409.90;2837682;82;21031;-59
2021/10/05 16:26:16;;;;;;;18.05;8.10;;;;;;;23.61;62.66;99420.16;2909651;81;21273;-61
2021/10/05 16:31:21;;;;;;;10.08;7.05;;;;;;;23.54;63.33;99429.22;2909823;81;21018;-60
2021/10/05 16:35:23;;;;;;;9.63;7.75;;;;;;;23.48;62.89;99430.67;2909732;82;20944;-62
2021/10/05 16:39:32;;;;;;;15.80;8.03;;;;;;;23.45;64.12;99434.70;2909735;80;20995;-60
2021/10/05 16:43:34;;;;;;;9.48;7.83;;;;;;;23.39;64.35;99451.91;2909638;82;20976;-62
2021/10/05 16:47:38;;;;;;;11.57;8.65;;;;;;;23.33;65.27;99450.95;2909806;81;20998;-61
2021/10/05 16:52:14;;;;;;;10.30;7.75;;;;;;;23.28;65.00;99449.43;2909771;82;20983;-59
2021/10/05 16:56:15;;;;;;;12.85;8.05;;;;;;;23.24;64.20;99449.05;2909527;80;20972;-61
2021/10/05 17:00:30;;;;;;;13.45;8.43;;;;;;;23.27;64.75;99453.75;2910775;80;20967;-59
2021/10/05 17:04:32;;;;;;;12.05;8.03;;;;;;;23.11;68.39;99462.78;2909898;80;20983;-59
2021/10/05 17:08:34;;;;;;;8.85;7.95;;;;;;;22.81;69.56;99470.37;2909449;80;21054;-60
2021/10/05 17:12:37;;;;;;;5.47;3.62;;;;;;;22.61;69.64;99496.33;2888997;80;21039;-60
2021/10/05 17:16:39;;;;;;;3.87;2.20;;;;;;;22.35;69.88;99503.11;2875660;81;20973;-60
2021/10/05 17:20:43;;;;;;;3.30;2.58;;;;;;;22.01;70.99;99528.82;2972226;78;20940;-60
2021/10/05 17:24:58;;;;;;;4.35;1.98;;;;;;;21.73;72.76;99544.95;2882282;81;21262;-59
2021/10/05 17:29:03;;;;;;;2.05;1.30;;;;;;;21.50;73.06;99551.68;2918753;81;21029;-59
2021/10/05 17:33:10;;;;;;;4.25;2.02;;;;;;;21.31;74.74;99537.22;2924281;78;21050;-59
2021/10/05 17:37:12;;;;;;;2.33;1.60;;;;;;;20.96;76.94;99537.86;2966201;78;20991;-60
2021/10/05 17:41:14;;;;;;;1.72;1.60;;;;;;;20.68;78.49;99542.16;2965996;78;20999;-60
2021/10/05 17:45:47;;;;;;;2.90;1.72;;;;;;;20.48;79.32;99544.36;2966400;78;21007;-61
2021/10/05 17:49:50;;;;;;;2.00;1.52;;;;;;;20.38;80.15;99550.19;2941426;77;21078;-59
2021/10/05 17:54:09;;;;;;;2.95;2.25;;;;;;;20.32;80.91;99552.38;2914743;79;20991;-60
2021/10/05 17:58:11;;;;;;;1.75;1.45;;;;;;;20.24;81.81;99533.16;2909831;77;20940;-61
2021/10/05 18:02:13;;;;;;;2.87;1.75;;;;;;;20.05;83.73;99532.14;2914882;79;21026;-60
2021/10/05 18:06:25;;;;;;;9.63;2.45;;;;;;;19.82;85.36;99532.48;2914801;77;21010;-59
2021/10/05 18:10:27;;;;;;;2.65;1.85;;;;;;;19.68;86.26;99558.08;2914696;81;21043;-59
2021/10/05 18:14:29;;;;;;;2.40;2.17;;;;;;;19.65;86.70;99542.31;2913833;80;21067;-59
2021/10/05 18:18:45;;;;;;;4.45;2.40;;;;;;;19.65;86.88;99545.50;2875140;81;20985;-59
2021/10/05 18:22:47;;;;;;;;;;;;;;;19.61;87.25;99543.75;2917011;77;21027;-61
2021/10/05 18:26:51;;;;;;;5.60;4.33;;;;;;;19.59;88.18;99553.08;2914738;81;20086;-59
2021/10/05 18:31:29;;;;;;;5.80;4.35;;;;;;;19.51;89.06;99554.93;2914693;77;21063;-58
2021/10/05 18:35:31;;;;;;;7.45;3.65;;;;;;;19.52;89.95;99563.84;2881054;81;21087;-59
2021/10/05 18:39:32;;;;;;;7.40;4.70;;;;;;;19.59;89.60;99573.30;2931514;80;21015;-59
2021/10/05 18:44:41;;;;;;;5.45;4.95;;;;;;;19.61;90.09;99572.08;2961212;78;21250;-60
2021/10/05 18:48:43;;;;;;;5.75;5.15;;;;;;;19.70;89.90;99561.94;2895663;77;21056;-59
2021/10/05 18:52:45;;;;;;;7.60;5.17;;;;;;;19.89;89.63;99558.14;2892771;81;20998;-59
2021/10/05 18:57:07;;;;;;;8.30;4.78;;;;;;;20.03;89.22;99559.02;2955658;77;21004;-59
2021/10/05 19:01:11;;;;;;;6.05;4.42;;;;;;;20.18;88.70;99552.06;2913984;77;21040;-60
2021/10/05 19:05:12;;;;;;;8.43;5.65;;;;;;;20.28;88.14;99564.64;2913714;77;20991;-60
2021/10/05 19:09:29;;;;;;;5.95;5.12;;;;;;;20.22;87.92;99560.05;2861317;81;21347;-59
2021/10/05 19:13:30;;;;;;;7.30;5.10;;;;;;;20.14;87.86;99572.41;2913656;77;21027;-60
2021/10/05 19:17:32;;;;;;;5.05;4.55;;;;;;;19.97;89.00;99575.50;2856804;80;20989;-59
2021/10/05 19:21:43;;;;;;;8.03;5.87;;;;;;;19.96;89.54;99571.99;2848645;81;20975;-59
2021/10/05 19:25:44;;;;;;;7.80;6.97;;;;;;;19.97;89.66;99568.25;2848712;81;21024;-60
2021/10/05 19:29:46;;;;;;;7.17;5.25;;;;;;;19.97;89.93;99576.86;2848366;82;21016;-60
2021/10/05 19:33:51;;;;;;;9.30;6.42;;;;;;;19.99;90.11;99582.87;2848948;81;20984;-60
2021/10/05 19:37:54;;;;;;;7.33;4.87;;;;;;;20.01;89.89;99575.41;2848630;82;21015;-59
2021/10/05 19:42:16;;;;;;;11.12;6.42;;;;;;;20.00;89.98;99573.74;2848666;82;21012;-59
2021/10/05 19:46:18;;;;;;;7.40;6.05;;;;;;;19.98;90.16;99591.51;2848507;82;20973;-59
2021/10/05 19:50:22;;;;;;;6.85;5.72;;;;;;;20.01;90.20;99584.84;2848676;82;20941;-59
2021/10/05 19:54:25;;;;;;;6.70;5.72;;;;;;;20.07;90.48;99590.80;2854012;81;21023;-59
2021/10/05 20:02:37;;;;;;;9.63;6.37;;;;;;;20.03;89.78;99585.47;2860830;81;68313;-73
2021/10/05 20:23:45;;;;;;;10.25;7.15;;;;;;;19.92;91.85;99647.63;2910125;80;21000;-64
2021/10/05 20:27:47;;;;;;;14.10;7.87;;;;;;;19.92;91.67;99631.97;2931258;81;21233;-59
2021/10/05 20:31:49;;;;;;;11.85;7.45;;;;;;;19.93;91.80;99634.98;2931399;79;21155;-59
2021/10/05 20:35:53;;;;;;;9.58;8.40;;;;;;;19.92;91.73;99640.88;2930260;79;20988;-61
2021/10/05 20:40:51;;;;;;;11.70;8.65;;;;;;;19.89;91.58;99636.41;2928861;79;21005;-59
2021/10/05 20:44:53;;;;;;;13.20;9.98;;;;;;;19.83;92.20;99636.16;2928739;81;20942;-58
2021/10/05 20:48:56;;;;;;;13.22;9.30;;;;;;;19.86;92.53;99636.81;2928800;81;21079;-59
2021/10/05 20:52:57;;;;;;;12.93;9.68;;;;;;;19.84;92.77;99636.47;2929000;81;21274;-59
2021/10/05 20:57:06;;;;;;;15.78;11.20;;;;;;;19.80;92.83;99635.75;2928909;81;21016;-59
2021/10/05 21:01:08;;;;;;;17.62;13.15;;;;;;;19.71;93.11;99636.44;2928957;81;21768;-59
2021/10/05 21:05:10;;;;;;;18.98;13.65;;;;;;;19.67;93.55;99648.67;2928552;79;21015;-59
2021/10/05 21:09:11;;;;;;;19.85;17.37;;;;;;;19.52;94.11;99655.04;2928957;81;20941;-58
2021/10/05 21:13:14;;;;;;;20.90;15.28;;;;;;;19.39;94.67;99649.56;2928832;79;20949;-59
2021/10/05 21:17:20;;;;;;;26.40;16.02;;;;;;;19.39;94.67;99646.88;2929150;81;20988;-58
2021/10/05 21:21:22;;;;;;;18.27;15.80;;;;;;;19.39;94.84;99657.66;2928844;79;20969;-59
2021/10/05 21:25:25;;;;;;;21.30;16.60;;;;;;;19.34;95.29;99666.34;2937810;80;21027;-60
2021/10/05 21:29:27;;;;;;;19.45;14.65;;;;;;;19.20;96.03;99675.40;2957763;78;20996;-59
2021/10/05 21:33:56;;;;;;;24.10;16.87;;;;;;;19.06;97.17;99675.80;2957338;77;21042;-58
2021/10/05 21:37:58;;;;;;;20.35;14.40;;;;;;;19.01;97.75;99671.52;2958112;80;20979;-60